Terminal Aerodrome Forecast
Issued by NWS Wilmington, OH

Current Version | Previous Version | Text Only | Print | Product List | Glossary On
Versions: 1 2 3 4 5 6 7 8 9 10 11 12 13 14 15 16 17 18 19 20 21 22 23 24 25 26 27 28
000 FTUS41 KILN 182300 TAFILN TAF KILN 182321Z 1900/1924 31005KT P6SM OVC018 FM191600 34005KT P6SM OVC022=

USA.gov is the U.S. government's official web portal to all federal, state and local government web resources and services.